sensor_id;sensor_type;location;lat;lon;timestamp;P1;durP1;ratioP1;P2;durP2;ratioP2
7426;SDS011;3755;59.316;18.092;2022-11-20T00:00:34;3.47;;;1.77;;
7426;SDS011;3755;59.316;18.092;2022-11-20T00:03:01;3.37;;;1.93;;
7426;SDS011;3755;59.316;18.092;2022-11-20T00:05:31;3.10;;;2.27;;
7426;SDS011;3755;59.316;18.092;2022-11-20T00:08:12;3.20;;;2.40;;
7426;SDS011;3755;59.316;18.092;2022-11-20T00:10:52;1.73;;;1.63;;
7426;SDS011;3755;59.316;18.092;2022-11-20T00:19:55;4.50;;;2.30;;
7426;SDS011;3755;59.316;18.092;2022-11-20T00:22:31;4.23;;;2.30;;
7426;SDS011;3755;59.316;18.092;2022-11-20T00:25:01;4.23;;;2.20;;
7426;SDS011;3755;59.316;18.092;2022-11-20T00:27:28;3.60;;;1.70;;
7426;SDS011;3755;59.316;18.092;2022-11-20T00:29:56;3.77;;;2.00;;
7426;SDS011;3755;59.316;18.092;2022-11-20T00:32:37;4.67;;;2.93;;
7426;SDS011;3755;59.316;18.092;2022-11-20T00:38:32;3.47;;;2.37;;
7426;SDS011;3755;59.316;18.092;2022-11-20T00:41:04;3.73;;;2.43;;
7426;SDS011;3755;59.316;18.092;2022-11-20T00:43:33;3.60;;;2.40;;
7426;SDS011;3755;59.316;18.092;2022-11-20T00:46:16;4.27;;;2.63;;
7426;SDS011;3755;59.316;18.092;2022-11-20T00:48:58;4.27;;;2.70;;
7426;SDS011;3755;59.316;18.092;2022-11-20T00:51:43;6.37;;;2.27;;
7426;SDS011;3755;59.316;18.092;2022-11-20T00:54:27;4.00;;;2.50;;
7426;SDS011;3755;59.316;18.092;2022-11-20T00:56:54;4.37;;;2.40;;
7426;SDS011;3755;59.316;18.092;2022-11-20T00:59:29;3.97;;;2.73;;
7426;SDS011;3755;59.316;18.092;2022-11-20T01:02:06;2.47;;;2.13;;
7426;SDS011;3755;59.316;18.092;2022-11-20T01:04:33;3.57;;;2.60;;
7426;SDS011;3755;59.316;18.092;2022-11-20T01:07:03;3.17;;;2.17;;
7426;SDS011;3755;59.316;18.092;2022-11-20T01:09:32;4.63;;;2.50;;
7426;SDS011;3755;59.316;18.092;2022-11-20T01:11:59;3.77;;;2.33;;
7426;SDS011;3755;59.316;18.092;2022-11-20T01:14:27;5.03;;;2.50;;
7426;SDS011;3755;59.316;18.092;2022-11-20T01:16:55;4.87;;;2.80;;
7426;SDS011;3755;59.316;18.092;2022-11-20T01:19:22;5.17;;;3.03;;
7426;SDS011;3755;59.316;18.092;2022-11-20T01:21:51;5.87;;;2.87;;
7426;SDS011;3755;59.316;18.092;2022-11-20T01:24:21;3.80;;;2.87;;
7426;SDS011;3755;59.316;18.092;2022-11-20T01:26:50;2.63;;;2.40;;
7426;SDS011;3755;59.316;18.092;2022-11-20T01:29:18;3.60;;;2.90;;
7426;SDS011;3755;59.316;18.092;2022-11-20T01:31:49;4.67;;;2.83;;
7426;SDS011;3755;59.316;18.092;2022-11-20T01:34:18;3.10;;;2.20;;
7426;SDS011;3755;59.316;18.092;2022-11-20T01:36:47;4.77;;;2.67;;
7426;SDS011;3755;59.316;18.092;2022-11-20T01:39:15;3.87;;;3.00;;
7426;SDS011;3755;59.316;18.092;2022-11-20T01:41:48;5.83;;;3.03;;
7426;SDS011;3755;59.316;18.092;2022-11-20T01:44:46;4.23;;;2.87;;
7426;SDS011;3755;59.316;18.092;2022-11-20T01:47:38;5.17;;;3.03;;
7426;SDS011;3755;59.316;18.092;2022-11-20T01:50:11;4.23;;;2.77;;
7426;SDS011;3755;59.316;18.092;2022-11-20T01:52:45;3.10;;;2.50;;
7426;SDS011;3755;59.316;18.092;2022-11-20T01:55:25;4.20;;;3.07;;
7426;SDS011;3755;59.316;18.092;2022-11-20T01:58:03;5.30;;;3.00;;
7426;SDS011;3755;59.316;18.092;2022-11-20T02:00:45;3.93;;;2.77;;
7426;SDS011;3755;59.316;18.092;2022-11-20T02:03:12;4.77;;;3.20;;
7426;SDS011;3755;59.316;18.092;2022-11-20T02:05:51;4.70;;;2.77;;
7426;SDS011;3755;59.316;18.092;2022-11-20T02:08:24;5.53;;;3.17;;
7426;SDS011;3755;59.316;18.092;2022-11-20T02:10:51;3.20;;;2.50;;
7426;SDS011;3755;59.316;18.092;2022-11-20T02:13:21;3.23;;;2.80;;
7426;SDS011;3755;59.316;18.092;2022-11-20T02:16:08;3.60;;;2.80;;
7426;SDS011;3755;59.316;18.092;2022-11-20T02:18:40;3.27;;;2.97;;
7426;SDS011;3755;59.316;18.092;2022-11-20T02:21:09;3.50;;;2.57;;
7426;SDS011;3755;59.316;18.092;2022-11-20T02:23:55;3.63;;;2.60;;
7426;SDS011;3755;59.316;18.092;2022-11-20T02:26:31;3.43;;;3.00;;
7426;SDS011;3755;59.316;18.092;2022-11-20T02:29:01;5.13;;;2.93;;
7426;SDS011;3755;59.316;18.092;2022-11-20T02:31:35;5.37;;;3.10;;
7426;SDS011;3755;59.316;18.092;2022-11-20T02:34:07;3.30;;;2.47;;
7426;SDS011;3755;59.316;18.092;2022-11-20T02:36:34;4.30;;;3.80;;
7426;SDS011;3755;59.316;18.092;2022-11-20T02:39:07;3.40;;;2.37;;
7426;SDS011;3755;59.316;18.092;2022-11-20T02:41:40;6.47;;;3.07;;
7426;SDS011;3755;59.316;18.092;2022-11-20T02:44:08;1.70;;;1.47;;
7426;SDS011;3755;59.316;18.092;2022-11-20T02:46:38;4.37;;;2.57;;
7426;SDS011;3755;59.316;18.092;2022-11-20T02:49:06;2.23;;;1.73;;
7426;SDS011;3755;59.316;18.092;2022-11-20T02:51:33;3.40;;;2.47;;
7426;SDS011;3755;59.316;18.092;2022-11-20T02:54:02;3.70;;;2.50;;
7426;SDS011;3755;59.316;18.092;2022-11-20T02:56:30;2.87;;;2.57;;
7426;SDS011;3755;59.316;18.092;2022-11-20T02:59:04;4.00;;;2.47;;
7426;SDS011;3755;59.316;18.092;2022-11-20T03:01:31;3.10;;;1.90;;
7426;SDS011;3755;59.316;18.092;2022-11-20T03:03:58;3.33;;;1.83;;
7426;SDS011;3755;59.316;18.092;2022-11-20T03:06:25;2.93;;;2.40;;
7426;SDS011;3755;59.316;18.092;2022-11-20T03:08:52;2.67;;;1.87;;
7426;SDS011;3755;59.316;18.092;2022-11-20T03:11:21;3.40;;;2.40;;
7426;SDS011;3755;59.316;18.092;2022-11-20T03:13:50;2.37;;;1.30;;
7426;SDS011;3755;59.316;18.092;2022-11-20T03:16:20;2.93;;;2.20;;
7426;SDS011;3755;59.316;18.092;2022-11-20T03:18:51;3.27;;;2.27;;
7426;SDS011;3755;59.316;18.092;2022-11-20T03:21:20;2.23;;;1.80;;
7426;SDS011;3755;59.316;18.092;2022-11-20T03:23:47;3.50;;;2.60;;
7426;SDS011;3755;59.316;18.092;2022-11-20T03:26:24;2.57;;;2.13;;
7426;SDS011;3755;59.316;18.092;2022-11-20T03:28:55;3.43;;;2.50;;
7426;SDS011;3755;59.316;18.092;2022-11-20T03:31:24;3.57;;;2.03;;
7426;SDS011;3755;59.316;18.092;2022-11-20T03:33:53;3.50;;;2.50;;
7426;SDS011;3755;59.316;18.092;2022-11-20T03:36:22;2.60;;;2.20;;
7426;SDS011;3755;59.316;18.092;2022-11-20T03:38:49;4.30;;;2.50;;
7426;SDS011;3755;59.316;18.092;2022-11-20T03:41:17;3.73;;;2.40;;
7426;SDS011;3755;59.316;18.092;2022-11-20T03:43:47;3.67;;;2.30;;
7426;SDS011;3755;59.316;18.092;2022-11-20T03:46:16;2.20;;;1.20;;
7426;SDS011;3755;59.316;18.092;2022-11-20T03:48:44;2.83;;;1.90;;
7426;SDS011;3755;59.316;18.092;2022-11-20T03:51:12;3.10;;;2.30;;
7426;SDS011;3755;59.316;18.092;2022-11-20T03:53:41;4.03;;;2.43;;
7426;SDS011;3755;59.316;18.092;2022-11-20T03:56:10;3.30;;;2.40;;
7426;SDS011;3755;59.316;18.092;2022-11-20T03:58:40;3.73;;;2.83;;
7426;SDS011;3755;59.316;18.092;2022-11-20T04:01:07;3.00;;;2.20;;
7426;SDS011;3755;59.316;18.092;2022-11-20T04:03:40;3.33;;;2.37;;
7426;SDS011;3755;59.316;18.092;2022-11-20T04:06:10;3.57;;;2.50;;
7426;SDS011;3755;59.316;18.092;2022-11-20T04:08:39;4.93;;;2.50;;
7426;SDS011;3755;59.316;18.092;2022-11-20T04:11:10;7.43;;;2.70;;
7426;SDS011;3755;59.316;18.092;2022-11-20T04:13:38;3.80;;;2.20;;
7426;SDS011;3755;59.316;18.092;2022-11-20T04:16:06;3.47;;;2.87;;
7426;SDS011;3755;59.316;18.092;2022-11-20T04:18:35;3.73;;;2.33;;
7426;SDS011;3755;59.316;18.092;2022-11-20T04:21:05;2.50;;;2.10;;
7426;SDS011;3755;59.316;18.092;2022-11-20T04:23:32;3.17;;;1.97;;
7426;SDS011;3755;59.316;18.092;2022-11-20T04:26:00;3.37;;;1.73;;
7426;SDS011;3755;59.316;18.092;2022-11-20T04:28:28;2.40;;;1.97;;
7426;SDS011;3755;59.316;18.092;2022-11-20T04:31:01;2.53;;;2.03;;
7426;SDS011;3755;59.316;18.092;2022-11-20T04:33:29;3.73;;;2.33;;
7426;SDS011;3755;59.316;18.092;2022-11-20T04:35:59;3.77;;;2.93;;
7426;SDS011;3755;59.316;18.092;2022-11-20T04:38:43;5.17;;;2.33;;
7426;SDS011;3755;59.316;18.092;2022-11-20T04:41:14;2.03;;;1.17;;
7426;SDS011;3755;59.316;18.092;2022-11-20T04:43:57;3.07;;;2.10;;
7426;SDS011;3755;59.316;18.092;2022-11-20T04:46:41;4.30;;;2.67;;
7426;SDS011;3755;59.316;18.092;2022-11-20T04:49:10;3.53;;;2.20;;
7426;SDS011;3755;59.316;18.092;2022-11-20T04:51:40;3.30;;;2.00;;
7426;SDS011;3755;59.316;18.092;2022-11-20T04:54:10;2.73;;;1.90;;
7426;SDS011;3755;59.316;18.092;2022-11-20T04:56:42;2.10;;;1.70;;
7426;SDS011;3755;59.316;18.092;2022-11-20T04:59:09;3.57;;;2.00;;
7426;SDS011;3755;59.316;18.092;2022-11-20T05:01:39;2.83;;;1.80;;
7426;SDS011;3755;59.316;18.092;2022-11-20T05:04:07;1.10;;;1.00;;
7426;SDS011;3755;59.316;18.092;2022-11-20T05:06:34;1.70;;;1.60;;
7426;SDS011;3755;59.316;18.092;2022-11-20T05:09:18;2.40;;;2.10;;
7426;SDS011;3755;59.316;18.092;2022-11-20T05:11:46;2.47;;;1.80;;
7426;SDS011;3755;59.316;18.092;2022-11-20T05:14:13;2.53;;;1.93;;
7426;SDS011;3755;59.316;18.092;2022-11-20T05:16:41;3.30;;;1.80;;
7426;SDS011;3755;59.316;18.092;2022-11-20T05:19:08;2.40;;;2.10;;
7426;SDS011;3755;59.316;18.092;2022-11-20T05:21:37;2.07;;;1.60;;
7426;SDS011;3755;59.316;18.092;2022-11-20T05:24:05;4.30;;;1.97;;
7426;SDS011;3755;59.316;18.092;2022-11-20T05:26:36;2.40;;;2.20;;
7426;SDS011;3755;59.316;18.092;2022-11-20T05:29:19;5.50;;;4.67;;
7426;SDS011;3755;59.316;18.092;2022-11-20T05:31:46;3.00;;;2.70;;
7426;SDS011;3755;59.316;18.092;2022-11-20T05:34:21;3.87;;;3.03;;
7426;SDS011;3755;59.316;18.092;2022-11-20T05:36:51;3.30;;;2.70;;
7426;SDS011;3755;59.316;18.092;2022-11-20T05:39:20;2.77;;;2.40;;
7426;SDS011;3755;59.316;18.092;2022-11-20T05:41:54;3.47;;;2.43;;
7426;SDS011;3755;59.316;18.092;2022-11-20T05:44:36;2.60;;;1.87;;
7426;SDS011;3755;59.316;18.092;2022-11-20T05:47:03;2.07;;;1.80;;
7426;SDS011;3755;59.316;18.092;2022-11-20T05:49:31;2.40;;;1.83;;
7426;SDS011;3755;59.316;18.092;2022-11-20T05:51:59;2.40;;;2.00;;
7426;SDS011;3755;59.316;18.092;2022-11-20T05:54:27;2.67;;;2.10;;
7426;SDS011;3755;59.316;18.092;2022-11-20T05:57:00;6.17;;;2.53;;
7426;SDS011;3755;59.316;18.092;2022-11-20T05:59:27;2.20;;;1.63;;
7426;SDS011;3755;59.316;18.092;2022-11-20T06:01:56;2.30;;;2.03;;
7426;SDS011;3755;59.316;18.092;2022-11-20T06:04:26;1.87;;;1.50;;
7426;SDS011;3755;59.316;18.092;2022-11-20T06:06:53;2.43;;;1.90;;
7426;SDS011;3755;59.316;18.092;2022-11-20T06:09:26;3.50;;;1.97;;
7426;SDS011;3755;59.316;18.092;2022-11-20T06:11:54;2.57;;;2.00;;
7426;SDS011;3755;59.316;18.092;2022-11-20T06:14:23;2.10;;;1.90;;
7426;SDS011;3755;59.316;18.092;2022-11-20T06:16:52;1.93;;;1.37;;
7426;SDS011;3755;59.316;18.092;2022-11-20T06:19:19;3.20;;;2.50;;
7426;SDS011;3755;59.316;18.092;2022-11-20T06:21:47;6.23;;;2.77;;
7426;SDS011;3755;59.316;18.092;2022-11-20T06:24:16;2.27;;;1.80;;
7426;SDS011;3755;59.316;18.092;2022-11-20T06:26:47;3.40;;;2.10;;
7426;SDS011;3755;59.316;18.092;2022-11-20T06:29:15;2.90;;;2.50;;
7426;SDS011;3755;59.316;18.092;2022-11-20T06:31:44;4.10;;;2.63;;
7426;SDS011;3755;59.316;18.092;2022-11-20T06:34:14;2.20;;;1.90;;
7426;SDS011;3755;59.316;18.092;2022-11-20T06:36:55;4.27;;;1.90;;
7426;SDS011;3755;59.316;18.092;2022-11-20T06:39:29;3.47;;;3.10;;
7426;SDS011;3755;59.316;18.092;2022-11-20T06:41:58;6.17;;;2.33;;
7426;SDS011;3755;59.316;18.092;2022-11-20T06:44:26;1.97;;;1.77;;
7426;SDS011;3755;59.316;18.092;2022-11-20T06:47:08;1.63;;;1.23;;
7426;SDS011;3755;59.316;18.092;2022-11-20T06:49:36;4.23;;;2.10;;
7426;SDS011;3755;59.316;18.092;2022-11-20T06:52:07;2.97;;;1.40;;
7426;SDS011;3755;59.316;18.092;2022-11-20T06:54:34;2.60;;;1.70;;
7426;SDS011;3755;59.316;18.092;2022-11-20T06:57:03;2.40;;;1.90;;
7426;SDS011;3755;59.316;18.092;2022-11-20T06:59:30;3.03;;;1.30;;
7426;SDS011;3755;59.316;18.092;2022-11-20T07:01:58;2.83;;;1.20;;
7426;SDS011;3755;59.316;18.092;2022-11-20T07:04:41;2.00;;;1.37;;
7426;SDS011;3755;59.316;18.092;2022-11-20T07:07:11;3.33;;;1.77;;
7426;SDS011;3755;59.316;18.092;2022-11-20T07:09:39;2.50;;;1.57;;
7426;SDS011;3755;59.316;18.092;2022-11-20T07:12:07;3.70;;;1.23;;
7426;SDS011;3755;59.316;18.092;2022-11-20T07:14:35;2.67;;;1.10;;
7426;SDS011;3755;59.316;18.092;2022-11-20T07:17:02;1.97;;;1.20;;
7426;SDS011;3755;59.316;18.092;2022-11-20T07:19:32;2.00;;;1.33;;
7426;SDS011;3755;59.316;18.092;2022-11-20T07:22:05;2.73;;;1.20;;
7426;SDS011;3755;59.316;18.092;2022-11-20T07:24:37;3.03;;;1.23;;
7426;SDS011;3755;59.316;18.092;2022-11-20T07:27:06;1.87;;;1.53;;
7426;SDS011;3755;59.316;18.092;2022-11-20T07:29:33;1.40;;;1.10;;
7426;SDS011;3755;59.316;18.092;2022-11-20T07:32:00;1.50;;;1.40;;
7426;SDS011;3755;59.316;18.092;2022-11-20T07:34:28;1.70;;;1.40;;
7426;SDS011;3755;59.316;18.092;2022-11-20T07:36:55;2.23;;;1.53;;
7426;SDS011;3755;59.316;18.092;2022-11-20T07:39:24;1.40;;;1.10;;
7426;SDS011;3755;59.316;18.092;2022-11-20T07:41:51;1.50;;;1.17;;
7426;SDS011;3755;59.316;18.092;2022-11-20T07:44:20;2.13;;;1.70;;
7426;SDS011;3755;59.316;18.092;2022-11-20T07:46:49;1.60;;;1.10;;
7426;SDS011;3755;59.316;18.092;2022-11-20T07:49:16;1.83;;;1.47;;
7426;SDS011;3755;59.316;18.092;2022-11-20T07:51:45;1.33;;;1.03;;
7426;SDS011;3755;59.316;18.092;2022-11-20T07:54:13;2.40;;;1.30;;
7426;SDS011;3755;59.316;18.092;2022-11-20T07:56:44;1.43;;;1.10;;
7426;SDS011;3755;59.316;18.092;2022-11-20T07:59:13;1.30;;;1.20;;
7426;SDS011;3755;59.316;18.092;2022-11-20T08:01:41;1.33;;;1.20;;
7426;SDS011;3755;59.316;18.092;2022-11-20T08:04:10;1.70;;;1.20;;
7426;SDS011;3755;59.316;18.092;2022-11-20T08:06:39;1.60;;;1.23;;
7426;SDS011;3755;59.316;18.092;2022-11-20T08:09:07;1.83;;;1.27;;
7426;SDS011;3755;59.316;18.092;2022-11-20T08:11:48;2.30;;;0.93;;
7426;SDS011;3755;59.316;18.092;2022-11-20T08:14:32;1.57;;;1.43;;
7426;SDS011;3755;59.316;18.092;2022-11-20T08:17:00;1.17;;;1.07;;
7426;SDS011;3755;59.316;18.092;2022-11-20T08:19:41;2.57;;;0.90;;
7426;SDS011;3755;59.316;18.092;2022-11-20T08:22:10;1.47;;;1.10;;
7426;SDS011;3755;59.316;18.092;2022-11-20T08:24:41;1.87;;;1.17;;
7426;SDS011;3755;59.316;18.092;2022-11-20T08:27:10;2.17;;;1.70;;
7426;SDS011;3755;59.316;18.092;2022-11-20T08:29:52;1.90;;;1.10;;
7426;SDS011;3755;59.316;18.092;2022-11-20T08:32:19;1.50;;;1.10;;
7426;SDS011;3755;59.316;18.092;2022-11-20T08:35:04;2.47;;;1.20;;
7426;SDS011;3755;59.316;18.092;2022-11-20T08:37:35;1.27;;;1.00;;
7426;SDS011;3755;59.316;18.092;2022-11-20T08:40:18;2.07;;;1.00;;
7426;SDS011;3755;59.316;18.092;2022-11-20T08:45:55;1.20;;;0.90;;
7426;SDS011;3755;59.316;18.092;2022-11-20T08:48:37;1.07;;;0.97;;
7426;SDS011;3755;59.316;18.092;2022-11-20T08:51:30;1.40;;;1.10;;
7426;SDS011;3755;59.316;18.092;2022-11-20T08:54:11;0.90;;;0.80;;
7426;SDS011;3755;59.316;18.092;2022-11-20T08:56:57;2.07;;;1.20;;
7426;SDS011;3755;59.316;18.092;2022-11-20T09:35:18;0.80;;;0.80;;
7426;SDS011;3755;59.316;18.092;2022-11-20T09:38:03;1.77;;;1.27;;
7426;SDS011;3755;59.316;18.092;2022-11-20T09:40:45;1.80;;;1.30;;
7426;SDS011;3755;59.316;18.092;2022-11-20T09:43:36;2.43;;;1.10;;
7426;SDS011;3755;59.316;18.092;2022-11-20T09:46:16;3.07;;;1.60;;
7426;SDS011;3755;59.316;18.092;2022-11-20T09:49:13;2.33;;;1.10;;
7426;SDS011;3755;59.316;18.092;2022-11-20T09:54:58;2.57;;;1.40;;
7426;SDS011;3755;59.316;18.092;2022-11-20T09:57:43;1.90;;;1.17;;
7426;SDS011;3755;59.316;18.092;2022-11-20T10:00:23;1.63;;;1.40;;
7426;SDS011;3755;59.316;18.092;2022-11-20T10:03:06;2.43;;;1.30;;
7426;SDS011;3755;59.316;18.092;2022-11-20T10:05:53;1.27;;;1.00;;
7426;SDS011;3755;59.316;18.092;2022-11-20T10:08:45;1.30;;;1.20;;
7426;SDS011;3755;59.316;18.092;2022-11-20T10:11:35;1.27;;;1.17;;
7426;SDS011;3755;59.316;18.092;2022-11-20T10:14:27;1.97;;;1.43;;
7426;SDS011;3755;59.316;18.092;2022-11-20T10:17:02;1.40;;;1.30;;
7426;SDS011;3755;59.316;18.092;2022-11-20T10:19:41;1.23;;;1.10;;
7426;SDS011;3755;59.316;18.092;2022-11-20T10:22:25;4.57;;;1.30;;
7426;SDS011;3755;59.316;18.092;2022-11-20T10:25:15;1.80;;;1.20;;
7426;SDS011;3755;59.316;18.092;2022-11-20T10:28:06;1.20;;;1.10;;
7426;SDS011;3755;59.316;18.092;2022-11-20T10:30:45;2.20;;;1.20;;
7426;SDS011;3755;59.316;18.092;2022-11-20T10:33:29;0.90;;;0.90;;
7426;SDS011;3755;59.316;18.092;2022-11-20T10:36:18;1.27;;;1.10;;
7426;SDS011;3755;59.316;18.092;2022-11-20T10:39:05;1.33;;;1.13;;
7426;SDS011;3755;59.316;18.092;2022-11-20T10:44:51;1.43;;;0.90;;
7426;SDS011;3755;59.316;18.092;2022-11-20T10:47:30;3.63;;;1.00;;
7426;SDS011;3755;59.316;18.092;2022-11-20T10:50:18;2.50;;;0.80;;
7426;SDS011;3755;59.316;18.092;2022-11-20T10:52:52;2.00;;;0.90;;
7426;SDS011;3755;59.316;18.092;2022-11-20T10:55:33;1.27;;;1.03;;
7426;SDS011;3755;59.316;18.092;2022-11-20T10:58:21;1.47;;;1.10;;
7426;SDS011;3755;59.316;18.092;2022-11-20T11:01:13;3.87;;;1.30;;
7426;SDS011;3755;59.316;18.092;2022-11-20T11:03:52;2.37;;;1.30;;
7426;SDS011;3755;59.316;18.092;2022-11-20T11:06:21;1.10;;;1.00;;
7426;SDS011;3755;59.316;18.092;2022-11-20T11:08:58;2.93;;;1.20;;
7426;SDS011;3755;59.316;18.092;2022-11-20T11:11:45;2.37;;;1.00;;
7426;SDS011;3755;59.316;18.092;2022-11-20T11:14:15;1.30;;;0.93;;
7426;SDS011;3755;59.316;18.092;2022-11-20T11:16:48;1.07;;;0.93;;
7426;SDS011;3755;59.316;18.092;2022-11-20T11:22:34;2.70;;;1.40;;
7426;SDS011;3755;59.316;18.092;2022-11-20T11:25:22;1.97;;;1.00;;
7426;SDS011;3755;59.316;18.092;2022-11-20T11:33:24;2.50;;;1.00;;
7426;SDS011;3755;59.316;18.092;2022-11-20T11:36:16;1.30;;;0.80;;
7426;SDS011;3755;59.316;18.092;2022-11-20T11:39:00;1.50;;;1.00;;
7426;SDS011;3755;59.316;18.092;2022-11-20T11:41:43;1.83;;;1.37;;
7426;SDS011;3755;59.316;18.092;2022-11-20T11:44:15;1.83;;;1.10;;
7426;SDS011;3755;59.316;18.092;2022-11-20T11:47:03;1.67;;;1.30;;
7426;SDS011;3755;59.316;18.092;2022-11-20T11:49:48;2.33;;;1.50;;
7426;SDS011;3755;59.316;18.092;2022-11-20T11:52:23;1.23;;;1.10;;
7426;SDS011;3755;59.316;18.092;2022-11-20T11:54:58;2.13;;;1.50;;
7426;SDS011;3755;59.316;18.092;2022-11-20T11:57:32;1.20;;;1.00;;
7426;SDS011;3755;59.316;18.092;2022-11-20T12:00:21;1.73;;;1.10;;
7426;SDS011;3755;59.316;18.092;2022-11-20T12:02:54;1.63;;;1.10;;
7426;SDS011;3755;59.316;18.092;2022-11-20T12:05:38;1.97;;;1.00;;
7426;SDS011;3755;59.316;18.092;2022-11-20T12:08:13;2.23;;;1.00;;
7426;SDS011;3755;59.316;18.092;2022-11-20T12:10:48;1.60;;;0.80;;
7426;SDS011;3755;59.316;18.092;2022-11-20T12:13:23;1.10;;;1.00;;
7426;SDS011;3755;59.316;18.092;2022-11-20T12:16:13;1.37;;;1.00;;
7426;SDS011;3755;59.316;18.092;2022-11-20T12:18:42;1.00;;;0.90;;
7426;SDS011;3755;59.316;18.092;2022-11-20T12:21:17;1.57;;;0.97;;
7426;SDS011;3755;59.316;18.092;2022-11-20T12:23:51;2.33;;;0.97;;
7426;SDS011;3755;59.316;18.092;2022-11-20T12:26:40;0.80;;;0.80;;
7426;SDS011;3755;59.316;18.092;2022-11-20T12:29:17;1.80;;;0.70;;
7426;SDS011;3755;59.316;18.092;2022-11-20T12:32:26;2.77;;;1.30;;
7426;SDS011;3755;59.316;18.092;2022-11-20T12:35:20;4.07;;;2.40;;
7426;SDS011;3755;59.316;18.092;2022-11-20T12:38:07;2.53;;;1.23;;
7426;SDS011;3755;59.316;18.092;2022-11-20T12:40:52;1.60;;;1.13;;
7426;SDS011;3755;59.316;18.092;2022-11-20T12:43:29;1.80;;;1.30;;
7426;SDS011;3755;59.316;18.092;2022-11-20T12:46:18;3.03;;;1.77;;
7426;SDS011;3755;59.316;18.092;2022-11-20T12:48:58;2.80;;;1.70;;
7426;SDS011;3755;59.316;18.092;2022-11-20T12:51:43;2.57;;;1.97;;
7426;SDS011;3755;59.316;18.092;2022-11-20T12:54:26;5.87;;;2.47;;
7426;SDS011;3755;59.316;18.092;2022-11-20T12:57:29;2.80;;;1.70;;
7426;SDS011;3755;59.316;18.092;2022-11-20T13:00:10;4.23;;;2.27;;
7426;SDS011;3755;59.316;18.092;2022-11-20T13:03:03;5.07;;;2.27;;
7426;SDS011;3755;59.316;18.092;2022-11-20T13:05:43;3.07;;;2.30;;
7426;SDS011;3755;59.316;18.092;2022-11-20T13:08:20;2.87;;;2.00;;
7426;SDS011;3755;59.316;18.092;2022-11-20T13:10:51;6.60;;;3.03;;
7426;SDS011;3755;59.316;18.092;2022-11-20T13:13:29;3.67;;;2.53;;
7426;SDS011;3755;59.316;18.092;2022-11-20T13:16:04;5.10;;;2.83;;
7426;SDS011;3755;59.316;18.092;2022-11-20T13:18:40;4.20;;;2.53;;
7426;SDS011;3755;59.316;18.092;2022-11-20T13:21:14;5.47;;;3.13;;
7426;SDS011;3755;59.316;18.092;2022-11-20T13:23:44;3.67;;;2.13;;
7426;SDS011;3755;59.316;18.092;2022-11-20T13:26:29;2.93;;;2.50;;
7426;SDS011;3755;59.316;18.092;2022-11-20T13:28:59;1.87;;;1.30;;
7426;SDS011;3755;59.316;18.092;2022-11-20T13:31:35;2.73;;;1.77;;
7426;SDS011;3755;59.316;18.092;2022-11-20T13:34:24;5.57;;;2.23;;
7426;SDS011;3755;59.316;18.092;2022-11-20T13:36:56;2.67;;;1.90;;
7426;SDS011;3755;59.316;18.092;2022-11-20T13:39:25;3.07;;;1.83;;
7426;SDS011;3755;59.316;18.092;2022-11-20T13:41:55;2.37;;;1.57;;
7426;SDS011;3755;59.316;18.092;2022-11-20T13:44:27;5.20;;;1.83;;
7426;SDS011;3755;59.316;18.092;2022-11-20T13:47:00;2.17;;;1.43;;
7426;SDS011;3755;59.316;18.092;2022-11-20T13:49:29;2.13;;;1.50;;
7426;SDS011;3755;59.316;18.092;2022-11-20T13:52:26;3.17;;;1.60;;
7426;SDS011;3755;59.316;18.092;2022-11-20T13:55:10;2.87;;;1.70;;
7426;SDS011;3755;59.316;18.092;2022-11-20T14:00:33;3.23;;;1.20;;
7426;SDS011;3755;59.316;18.092;2022-11-20T14:03:16;1.00;;;0.90;;
7426;SDS011;3755;59.316;18.092;2022-11-20T14:05:49;1.40;;;1.27;;
7426;SDS011;3755;59.316;18.092;2022-11-20T14:08:24;0.90;;;0.90;;
7426;SDS011;3755;59.316;18.092;2022-11-20T14:11:03;0.80;;;0.70;;
7426;SDS011;3755;59.316;18.092;2022-11-20T14:13:34;4.10;;;1.20;;
7426;SDS011;3755;59.316;18.092;2022-11-20T14:16:02;1.30;;;0.80;;
7426;SDS011;3755;59.316;18.092;2022-11-20T14:18:30;1.67;;;1.00;;
7426;SDS011;3755;59.316;18.092;2022-11-20T14:21:00;2.13;;;1.10;;
7426;SDS011;3755;59.316;18.092;2022-11-20T14:23:30;0.80;;;0.80;;
7426;SDS011;3755;59.316;18.092;2022-11-20T14:25:59;1.73;;;0.83;;
7426;SDS011;3755;59.316;18.092;2022-11-20T14:28:28;2.00;;;1.30;;
7426;SDS011;3755;59.316;18.092;2022-11-20T14:31:00;0.83;;;0.70;;
7426;SDS011;3755;59.316;18.092;2022-11-20T14:33:28;4.43;;;1.10;;
7426;SDS011;3755;59.316;18.092;2022-11-20T14:36:03;1.97;;;1.17;;
7426;SDS011;3755;59.316;18.092;2022-11-20T14:38:40;1.33;;;0.93;;
7426;SDS011;3755;59.316;18.092;2022-11-20T14:41:14;1.10;;;1.00;;
7426;SDS011;3755;59.316;18.092;2022-11-20T14:43:45;2.67;;;1.17;;
7426;SDS011;3755;59.316;18.092;2022-11-20T14:46:19;3.53;;;1.23;;
7426;SDS011;3755;59.316;18.092;2022-11-20T14:48:46;1.53;;;1.20;;
7426;SDS011;3755;59.316;18.092;2022-11-20T14:51:23;1.53;;;1.30;;
7426;SDS011;3755;59.316;18.092;2022-11-20T14:54:07;1.87;;;1.10;;
7426;SDS011;3755;59.316;18.092;2022-11-20T14:56:39;3.07;;;1.70;;
7426;SDS011;3755;59.316;18.092;2022-11-20T14:59:07;3.30;;;1.77;;
7426;SDS011;3755;59.316;18.092;2022-11-20T15:01:37;3.10;;;1.53;;
7426;SDS011;3755;59.316;18.092;2022-11-20T15:04:06;2.53;;;1.43;;
7426;SDS011;3755;59.316;18.092;2022-11-20T15:06:37;5.20;;;1.47;;
7426;SDS011;3755;59.316;18.092;2022-11-20T15:09:19;1.07;;;1.00;;
7426;SDS011;3755;59.316;18.092;2022-11-20T15:11:52;2.83;;;1.30;;
7426;SDS011;3755;59.316;18.092;2022-11-20T15:14:21;5.13;;;1.40;;
7426;SDS011;3755;59.316;18.092;2022-11-20T15:16:51;2.63;;;1.40;;
7426;SDS011;3755;59.316;18.092;2022-11-20T15:19:26;4.40;;;1.80;;
7426;SDS011;3755;59.316;18.092;2022-11-20T15:21:55;2.37;;;1.60;;
7426;SDS011;3755;59.316;18.092;2022-11-20T15:24:22;3.53;;;1.67;;
7426;SDS011;3755;59.316;18.092;2022-11-20T15:26:50;2.97;;;1.70;;
7426;SDS011;3755;59.316;18.092;2022-11-20T15:29:32;1.87;;;1.40;;
7426;SDS011;3755;59.316;18.092;2022-11-20T15:32:01;2.67;;;1.40;;
7426;SDS011;3755;59.316;18.092;2022-11-20T15:34:34;3.20;;;1.57;;
7426;SDS011;3755;59.316;18.092;2022-11-20T15:37:01;1.37;;;1.20;;
7426;SDS011;3755;59.316;18.092;2022-11-20T15:39:33;3.50;;;1.70;;
7426;SDS011;3755;59.316;18.092;2022-11-20T15:42:01;3.43;;;1.53;;
7426;SDS011;3755;59.316;18.092;2022-11-20T15:44:29;2.73;;;1.53;;
7426;SDS011;3755;59.316;18.092;2022-11-20T15:46:57;1.57;;;0.97;;
7426;SDS011;3755;59.316;18.092;2022-11-20T15:49:25;1.87;;;1.30;;
7426;SDS011;3755;59.316;18.092;2022-11-20T15:51:55;1.20;;;0.90;;
7426;SDS011;3755;59.316;18.092;2022-11-20T15:54:23;2.70;;;1.10;;
7426;SDS011;3755;59.316;18.092;2022-11-20T15:56:52;1.30;;;1.10;;
7426;SDS011;3755;59.316;18.092;2022-11-20T15:59:19;2.23;;;1.53;;
7426;SDS011;3755;59.316;18.092;2022-11-20T16:01:47;4.53;;;1.40;;
7426;SDS011;3755;59.316;18.092;2022-11-20T16:04:15;1.57;;;0.90;;
7426;SDS011;3755;59.316;18.092;2022-11-20T16:06:45;1.27;;;1.00;;
7426;SDS011;3755;59.316;18.092;2022-11-20T16:09:16;4.50;;;1.63;;
7426;SDS011;3755;59.316;18.092;2022-11-20T16:11:46;2.50;;;1.30;;
7426;SDS011;3755;59.316;18.092;2022-11-20T16:14:14;2.00;;;1.10;;
7426;SDS011;3755;59.316;18.092;2022-11-20T16:16:58;2.77;;;1.33;;
7426;SDS011;3755;59.316;18.092;2022-11-20T16:19:27;2.10;;;1.00;;
7426;SDS011;3755;59.316;18.092;2022-11-20T16:24:43;0.87;;;0.83;;
7426;SDS011;3755;59.316;18.092;2022-11-20T16:27:10;2.10;;;0.90;;
7426;SDS011;3755;59.316;18.092;2022-11-20T16:29:37;5.80;;;1.27;;
7426;SDS011;3755;59.316;18.092;2022-11-20T16:32:08;2.20;;;1.40;;
7426;SDS011;3755;59.316;18.092;2022-11-20T16:34:37;2.33;;;1.23;;
7426;SDS011;3755;59.316;18.092;2022-11-20T16:37:04;2.40;;;1.20;;
7426;SDS011;3755;59.316;18.092;2022-11-20T16:39:33;1.77;;;1.10;;
7426;SDS011;3755;59.316;18.092;2022-11-20T16:42:02;2.47;;;1.60;;
7426;SDS011;3755;59.316;18.092;2022-11-20T16:44:30;3.20;;;1.83;;
7426;SDS011;3755;59.316;18.092;2022-11-20T16:46:58;2.00;;;1.43;;
7426;SDS011;3755;59.316;18.092;2022-11-20T16:49:26;1.60;;;1.20;;